sensor_id;sensor_type;location;lat;lon;timestamp;P1;durP1;ratioP1;P2;durP2;ratioP2
26620;SDS011;14253;44.840;10.444;2023-10-31T00:00:35;4.10;;;1.40;;
26620;SDS011;14253;44.840;10.444;2023-10-31T00:03:01;5.05;;;1.13;;
26620;SDS011;14253;44.840;10.444;2023-10-31T00:05:27;3.97;;;1.17;;
26620;SDS011;14253;44.840;10.444;2023-10-31T00:07:53;4.57;;;1.00;;
26620;SDS011;14253;44.840;10.444;2023-10-31T00:10:19;3.80;;;1.23;;
26620;SDS011;14253;44.840;10.444;2023-10-31T00:12:45;4.93;;;0.95;;
26620;SDS011;14253;44.840;10.444;2023-10-31T00:15:11;4.32;;;1.20;;
26620;SDS011;14253;44.840;10.444;2023-10-31T00:17:37;5.35;;;0.80;;
26620;SDS011;14253;44.840;10.444;2023-10-31T00:20:03;5.30;;;1.33;;
26620;SDS011;14253;44.840;10.444;2023-10-31T00:22:30;4.05;;;1.08;;
26620;SDS011;14253;44.840;10.444;2023-10-31T00:24:56;5.40;;;1.02;;
26620;SDS011;14253;44.840;10.444;2023-10-31T00:27:22;3.90;;;1.00;;
26620;SDS011;14253;44.840;10.444;2023-10-31T00:29:48;4.53;;;0.77;;
26620;SDS011;14253;44.840;10.444;2023-10-31T00:32:14;2.85;;;0.95;;
26620;SDS011;14253;44.840;10.444;2023-10-31T00:34:40;4.88;;;1.10;;
26620;SDS011;14253;44.840;10.444;2023-10-31T00:37:06;5.95;;;1.20;;
26620;SDS011;14253;44.840;10.444;2023-10-31T00:39:32;3.92;;;1.30;;
26620;SDS011;14253;44.840;10.444;2023-10-31T00:41:59;3.55;;;1.20;;
26620;SDS011;14253;44.840;10.444;2023-10-31T00:44:25;2.20;;;1.00;;
26620;SDS011;14253;44.840;10.444;2023-10-31T00:46:51;3.58;;;0.95;;
26620;SDS011;14253;44.840;10.444;2023-10-31T00:49:16;8.75;;;0.98;;
26620;SDS011;14253;44.840;10.444;2023-10-31T00:51:42;6.47;;;1.20;;
26620;SDS011;14253;44.840;10.444;2023-10-31T00:54:08;5.35;;;1.25;;
26620;SDS011;14253;44.840;10.444;2023-10-31T00:56:34;6.68;;;1.25;;
26620;SDS011;14253;44.840;10.444;2023-10-31T00:59:00;5.63;;;1.35;;
26620;SDS011;14253;44.840;10.444;2023-10-31T01:01:27;3.95;;;1.00;;
26620;SDS011;14253;44.840;10.444;2023-10-31T01:03:53;4.22;;;1.10;;
26620;SDS011;14253;44.840;10.444;2023-10-31T01:06:19;4.43;;;0.80;;
26620;SDS011;14253;44.840;10.444;2023-10-31T01:08:45;9.13;;;1.10;;
26620;SDS011;14253;44.840;10.444;2023-10-31T01:11:11;4.45;;;1.00;;
26620;SDS011;14253;44.840;10.444;2023-10-31T01:13:37;6.25;;;1.35;;
26620;SDS011;14253;44.840;10.444;2023-10-31T01:16:03;4.32;;;1.08;;
26620;SDS011;14253;44.840;10.444;2023-10-31T01:18:30;6.45;;;2.00;;
26620;SDS011;14253;44.840;10.444;2023-10-31T01:20:56;11.18;;;1.15;;
26620;SDS011;14253;44.840;10.444;2023-10-31T01:23:21;5.20;;;1.50;;
26620;SDS011;14253;44.840;10.444;2023-10-31T01:25:48;5.97;;;1.52;;
26620;SDS011;14253;44.840;10.444;2023-10-31T01:28:14;8.25;;;1.50;;
26620;SDS011;14253;44.840;10.444;2023-10-31T01:30:40;3.70;;;1.17;;
26620;SDS011;14253;44.840;10.444;2023-10-31T01:33:06;6.35;;;1.83;;
26620;SDS011;14253;44.840;10.444;2023-10-31T01:35:31;7.43;;;1.52;;
26620;SDS011;14253;44.840;10.444;2023-10-31T01:37:57;5.78;;;1.30;;
26620;SDS011;14253;44.840;10.444;2023-10-31T01:40:23;2.63;;;1.20;;
26620;SDS011;14253;44.840;10.444;2023-10-31T01:42:49;3.97;;;1.00;;
26620;SDS011;14253;44.840;10.444;2023-10-31T01:45:15;3.15;;;1.08;;
26620;SDS011;14253;44.840;10.444;2023-10-31T01:47:42;6.88;;;1.15;;
26620;SDS011;14253;44.840;10.444;2023-10-31T01:50:10;4.60;;;1.30;;
26620;SDS011;14253;44.840;10.444;2023-10-31T01:52:36;4.88;;;1.15;;
26620;SDS011;14253;44.840;10.444;2023-10-31T01:55:03;4.38;;;1.48;;
26620;SDS011;14253;44.840;10.444;2023-10-31T01:57:30;4.50;;;1.30;;
26620;SDS011;14253;44.840;10.444;2023-10-31T01:59:56;5.28;;;0.90;;
26620;SDS011;14253;44.840;10.444;2023-10-31T02:02:22;3.78;;;1.10;;
26620;SDS011;14253;44.840;10.444;2023-10-31T02:04:50;5.75;;;1.15;;
26620;SDS011;14253;44.840;10.444;2023-10-31T02:07:16;3.38;;;0.93;;
26620;SDS011;14253;44.840;10.444;2023-10-31T02:09:42;4.30;;;1.10;;
26620;SDS011;14253;44.840;10.444;2023-10-31T02:12:08;4.78;;;1.00;;
26620;SDS011;14253;44.840;10.444;2023-10-31T02:14:34;9.65;;;1.42;;
26620;SDS011;14253;44.840;10.444;2023-10-31T02:17:00;2.95;;;1.27;;
26620;SDS011;14253;44.840;10.444;2023-10-31T02:19:26;5.63;;;1.33;;
26620;SDS011;14253;44.840;10.444;2023-10-31T02:21:52;5.97;;;1.33;;
26620;SDS011;14253;44.840;10.444;2023-10-31T02:24:18;3.75;;;1.35;;
26620;SDS011;14253;44.840;10.444;2023-10-31T02:26:44;4.35;;;1.17;;
26620;SDS011;14253;44.840;10.444;2023-10-31T02:29:10;6.32;;;0.90;;
26620;SDS011;14253;44.840;10.444;2023-10-31T02:31:36;7.53;;;1.13;;
26620;SDS011;14253;44.840;10.444;2023-10-31T02:34:02;3.10;;;0.80;;
26620;SDS011;14253;44.840;10.444;2023-10-31T02:36:28;2.30;;;0.73;;
26620;SDS011;14253;44.840;10.444;2023-10-31T02:38:53;3.53;;;1.10;;
26620;SDS011;14253;44.840;10.444;2023-10-31T02:41:19;7.18;;;1.67;;
26620;SDS011;14253;44.840;10.444;2023-10-31T02:43:45;5.75;;;0.90;;
26620;SDS011;14253;44.840;10.444;2023-10-31T02:46:11;4.72;;;1.10;;
26620;SDS011;14253;44.840;10.444;2023-10-31T02:48:38;3.22;;;0.95;;
26620;SDS011;14253;44.840;10.444;2023-10-31T02:51:06;7.20;;;1.08;;
26620;SDS011;14253;44.840;10.444;2023-10-31T02:53:35;5.18;;;1.02;;
26620;SDS011;14253;44.840;10.444;2023-10-31T02:56:01;2.88;;;0.70;;
26620;SDS011;14253;44.840;10.444;2023-10-31T02:58:27;5.20;;;1.48;;
26620;SDS011;14253;44.840;10.444;2023-10-31T03:00:53;3.63;;;1.23;;
26620;SDS011;14253;44.840;10.444;2023-10-31T03:03:19;4.85;;;1.30;;
26620;SDS011;14253;44.840;10.444;2023-10-31T03:05:45;6.82;;;1.00;;
26620;SDS011;14253;44.840;10.444;2023-10-31T03:08:11;6.20;;;1.08;;
26620;SDS011;14253;44.840;10.444;2023-10-31T03:10:38;3.78;;;1.10;;
26620;SDS011;14253;44.840;10.444;2023-10-31T03:13:04;4.22;;;1.02;;
26620;SDS011;14253;44.840;10.444;2023-10-31T03:15:30;5.65;;;1.15;;
26620;SDS011;14253;44.840;10.444;2023-10-31T03:17:56;5.10;;;0.95;;
26620;SDS011;14253;44.840;10.444;2023-10-31T03:20:22;3.22;;;1.15;;
26620;SDS011;14253;44.840;10.444;2023-10-31T03:22:48;7.38;;;1.15;;
26620;SDS011;14253;44.840;10.444;2023-10-31T03:25:14;6.13;;;1.08;;
26620;SDS011;14253;44.840;10.444;2023-10-31T03:27:40;4.82;;;1.23;;
26620;SDS011;14253;44.840;10.444;2023-10-31T03:30:06;5.40;;;0.98;;
26620;SDS011;14253;44.840;10.444;2023-10-31T03:32:32;6.10;;;0.93;;
26620;SDS011;14253;44.840;10.444;2023-10-31T03:34:58;7.63;;;1.45;;
26620;SDS011;14253;44.840;10.444;2023-10-31T03:37:24;4.45;;;0.80;;
26620;SDS011;14253;44.840;10.444;2023-10-31T03:39:50;4.07;;;0.90;;
26620;SDS011;14253;44.840;10.444;2023-10-31T03:42:16;3.38;;;0.80;;
26620;SDS011;14253;44.840;10.444;2023-10-31T03:44:42;6.65;;;1.10;;
26620;SDS011;14253;44.840;10.444;2023-10-31T03:47:08;4.38;;;0.82;;
26620;SDS011;14253;44.840;10.444;2023-10-31T03:49:37;2.03;;;0.82;;
26620;SDS011;14253;44.840;10.444;2023-10-31T03:52:04;4.55;;;1.13;;
26620;SDS011;14253;44.840;10.444;2023-10-31T03:54:31;3.50;;;1.00;;
26620;SDS011;14253;44.840;10.444;2023-10-31T03:56:56;2.67;;;1.27;;
26620;SDS011;14253;44.840;10.444;2023-10-31T03:59:22;4.43;;;1.13;;
26620;SDS011;14253;44.840;10.444;2023-10-31T04:01:48;3.35;;;0.82;;
26620;SDS011;14253;44.840;10.444;2023-10-31T04:04:14;5.85;;;1.20;;
26620;SDS011;14253;44.840;10.444;2023-10-31T04:06:40;4.38;;;1.08;;
26620;SDS011;14253;44.840;10.444;2023-10-31T04:09:07;3.03;;;0.90;;
26620;SDS011;14253;44.840;10.444;2023-10-31T04:11:33;3.17;;;1.00;;
26620;SDS011;14253;44.840;10.444;2023-10-31T04:13:59;7.45;;;0.82;;
26620;SDS011;14253;44.840;10.444;2023-10-31T04:16:25;4.85;;;0.93;;
26620;SDS011;14253;44.840;10.444;2023-10-31T04:18:50;4.63;;;0.82;;
26620;SDS011;14253;44.840;10.444;2023-10-31T04:21:16;3.45;;;1.00;;
26620;SDS011;14253;44.840;10.444;2023-10-31T04:23:42;4.50;;;1.25;;
26620;SDS011;14253;44.840;10.444;2023-10-31T04:26:08;3.72;;;1.00;;
26620;SDS011;14253;44.840;10.444;2023-10-31T04:28:34;3.72;;;0.80;;
26620;SDS011;14253;44.840;10.444;2023-10-31T04:31:00;9.98;;;1.10;;
26620;SDS011;14253;44.840;10.444;2023-10-31T04:33:26;4.70;;;1.02;;
26620;SDS011;14253;44.840;10.444;2023-10-31T04:35:52;4.07;;;1.00;;
26620;SDS011;14253;44.840;10.444;2023-10-31T04:38:18;3.42;;;0.77;;
26620;SDS011;14253;44.840;10.444;2023-10-31T04:40:44;1.27;;;0.47;;
26620;SDS011;14253;44.840;10.444;2023-10-31T04:43:10;6.25;;;0.70;;
26620;SDS011;14253;44.840;10.444;2023-10-31T04:45:36;3.90;;;0.57;;
26620;SDS011;14253;44.840;10.444;2023-10-31T04:48:02;1.40;;;0.40;;
26620;SDS011;14253;44.840;10.444;2023-10-31T04:50:28;3.75;;;0.70;;
26620;SDS011;14253;44.840;10.444;2023-10-31T04:52:54;2.78;;;0.60;;
26620;SDS011;14253;44.840;10.444;2023-10-31T04:55:20;2.78;;;0.75;;
26620;SDS011;14253;44.840;10.444;2023-10-31T04:57:45;3.08;;;0.68;;
26620;SDS011;14253;44.840;10.444;2023-10-31T05:00:12;5.90;;;0.60;;
26620;SDS011;14253;44.840;10.444;2023-10-31T05:02:38;2.72;;;0.73;;
26620;SDS011;14253;44.840;10.444;2023-10-31T05:05:04;6.22;;;0.80;;
26620;SDS011;14253;44.840;10.444;2023-10-31T05:07:30;3.00;;;0.90;;
26620;SDS011;14253;44.840;10.444;2023-10-31T05:09:57;4.32;;;1.23;;
26620;SDS011;14253;44.840;10.444;2023-10-31T05:12:24;3.33;;;1.10;;
26620;SDS011;14253;44.840;10.444;2023-10-31T05:14:50;6.30;;;0.70;;
26620;SDS011;14253;44.840;10.444;2023-10-31T05:17:16;2.97;;;0.52;;
26620;SDS011;14253;44.840;10.444;2023-10-31T05:19:42;3.63;;;0.52;;
26620;SDS011;14253;44.840;10.444;2023-10-31T05:22:08;6.88;;;1.25;;
26620;SDS011;14253;44.840;10.444;2023-10-31T05:24:34;5.55;;;0.70;;
26620;SDS011;14253;44.840;10.444;2023-10-31T05:27:01;5.40;;;1.25;;
26620;SDS011;14253;44.840;10.444;2023-10-31T05:29:28;2.38;;;0.60;;
26620;SDS011;14253;44.840;10.444;2023-10-31T05:31:55;3.72;;;0.70;;
26620;SDS011;14253;44.840;10.444;2023-10-31T05:34:21;3.65;;;0.68;;
26620;SDS011;14253;44.840;10.444;2023-10-31T05:36:47;5.10;;;0.70;;
26620;SDS011;14253;44.840;10.444;2023-10-31T05:39:13;7.00;;;1.33;;
26620;SDS011;14253;44.840;10.444;2023-10-31T05:41:40;3.75;;;0.90;;
26620;SDS011;14253;44.840;10.444;2023-10-31T05:44:06;6.82;;;1.10;;
26620;SDS011;14253;44.840;10.444;2023-10-31T05:46:37;5.65;;;0.90;;
26620;SDS011;14253;44.840;10.444;2023-10-31T05:49:06;3.42;;;0.93;;
26620;SDS011;14253;44.840;10.444;2023-10-31T05:51:33;5.15;;;0.65;;
26620;SDS011;14253;44.840;10.444;2023-10-31T05:54:00;3.72;;;0.65;;
26620;SDS011;14253;44.840;10.444;2023-10-31T05:56:26;3.35;;;1.00;;
26620;SDS011;14253;44.840;10.444;2023-10-31T05:58:52;10.52;;;1.23;;
26620;SDS011;14253;44.840;10.444;2023-10-31T06:01:18;7.72;;;1.00;;
26620;SDS011;14253;44.840;10.444;2023-10-31T06:03:44;5.32;;;0.95;;
26620;SDS011;14253;44.840;10.444;2023-10-31T06:06:10;8.27;;;2.03;;
26620;SDS011;14253;44.840;10.444;2023-10-31T06:08:37;10.68;;;0.93;;
26620;SDS011;14253;44.840;10.444;2023-10-31T06:11:04;7.70;;;0.80;;
26620;SDS011;14253;44.840;10.444;2023-10-31T06:13:30;11.82;;;1.17;;
26620;SDS011;14253;44.840;10.444;2023-10-31T06:15:56;4.75;;;1.05;;
26620;SDS011;14253;44.840;10.444;2023-10-31T06:18:25;9.63;;;0.85;;
26620;SDS011;14253;44.840;10.444;2023-10-31T06:20:54;10.15;;;1.55;;
26620;SDS011;14253;44.840;10.444;2023-10-31T06:23:20;6.38;;;1.08;;
26620;SDS011;14253;44.840;10.444;2023-10-31T06:25:46;5.00;;;0.95;;
26620;SDS011;14253;44.840;10.444;2023-10-31T06:28:12;6.15;;;0.80;;
26620;SDS011;14253;44.840;10.444;2023-10-31T06:30:38;6.03;;;1.13;;
26620;SDS011;14253;44.840;10.444;2023-10-31T06:33:04;5.63;;;0.57;;
26620;SDS011;14253;44.840;10.444;2023-10-31T06:35:30;3.45;;;0.50;;
26620;SDS011;14253;44.840;10.444;2023-10-31T06:37:56;2.25;;;0.28;;
26620;SDS011;14253;44.840;10.444;2023-10-31T06:40:25;2.35;;;0.30;;
26620;SDS011;14253;44.840;10.444;2023-10-31T06:42:51;1.17;;;0.30;;
26620;SDS011;14253;44.840;10.444;2023-10-31T06:45:17;2.22;;;0.40;;
26620;SDS011;14253;44.840;10.444;2023-10-31T06:47:43;1.45;;;0.20;;
26620;SDS011;14253;44.840;10.444;2023-10-31T06:50:09;4.57;;;0.40;;
26620;SDS011;14253;44.840;10.444;2023-10-31T06:52:35;1.00;;;0.43;;
26620;SDS011;14253;44.840;10.444;2023-10-31T06:55:01;1.23;;;0.50;;
26620;SDS011;14253;44.840;10.444;2023-10-31T06:57:27;1.30;;;0.50;;
26620;SDS011;14253;44.840;10.444;2023-10-31T06:59:53;2.53;;;0.55;;
26620;SDS011;14253;44.840;10.444;2023-10-31T07:02:19;1.80;;;0.57;;
26620;SDS011;14253;44.840;10.444;2023-10-31T07:04:45;0.70;;;0.25;;
26620;SDS011;14253;44.840;10.444;2023-10-31T07:07:11;1.23;;;0.60;;
26620;SDS011;14253;44.840;10.444;2023-10-31T07:09:37;3.22;;;0.60;;
26620;SDS011;14253;44.840;10.444;2023-10-31T07:12:03;4.10;;;0.32;;
26620;SDS011;14253;44.840;10.444;2023-10-31T07:14:29;2.08;;;0.40;;
26620;SDS011;14253;44.840;10.444;2023-10-31T07:16:56;1.15;;;0.30;;
26620;SDS011;14253;44.840;10.444;2023-10-31T07:19:22;0.60;;;0.40;;
26620;SDS011;14253;44.840;10.444;2023-10-31T07:21:48;3.22;;;0.47;;
26620;SDS011;14253;44.840;10.444;2023-10-31T07:24:14;2.65;;;0.80;;
26620;SDS011;14253;44.840;10.444;2023-10-31T07:26:40;2.83;;;0.43;;
26620;SDS011;14253;44.840;10.444;2023-10-31T07:29:05;4.28;;;0.47;;
26620;SDS011;14253;44.840;10.444;2023-10-31T07:31:31;0.43;;;0.20;;
26620;SDS011;14253;44.840;10.444;2023-10-31T07:33:58;1.58;;;0.40;;
26620;SDS011;14253;44.840;10.444;2023-10-31T07:36:24;1.85;;;0.35;;
26620;SDS011;14253;44.840;10.444;2023-10-31T07:38:50;0.88;;;0.20;;
26620;SDS011;14253;44.840;10.444;2023-10-31T07:41:16;1.15;;;0.65;;
26620;SDS011;14253;44.840;10.444;2023-10-31T07:43:42;0.70;;;0.20;;
26620;SDS011;14253;44.840;10.444;2023-10-31T07:46:08;1.40;;;0.20;;
26620;SDS011;14253;44.840;10.444;2023-10-31T07:48:33;1.02;;;0.40;;
26620;SDS011;14253;44.840;10.444;2023-10-31T07:50:59;1.77;;;0.20;;
26620;SDS011;14253;44.840;10.444;2023-10-31T07:53:25;2.75;;;0.15;;
26620;SDS011;14253;44.840;10.444;2023-10-31T07:55:51;0.40;;;0.20;;
26620;SDS011;14253;44.840;10.444;2023-10-31T07:58:17;0.20;;;0.10;;
26620;SDS011;14253;44.840;10.444;2023-10-31T08:00:43;0.20;;;0.20;;
26620;SDS011;14253;44.840;10.444;2023-10-31T08:03:09;0.63;;;0.10;;
26620;SDS011;14253;44.840;10.444;2023-10-31T08:05:35;3.03;;;0.30;;
26620;SDS011;14253;44.840;10.444;2023-10-31T08:08:01;2.20;;;0.30;;
26620;SDS011;14253;44.840;10.444;2023-10-31T08:10:27;0.20;;;0.10;;
26620;SDS011;14253;44.840;10.444;2023-10-31T08:12:53;0.00;;;0.00;;
26620;SDS011;14253;44.840;10.444;2023-10-31T08:15:19;3.47;;;0.17;;
26620;SDS011;14253;44.840;10.444;2023-10-31T08:17:45;0.60;;;0.17;;
26620;SDS011;14253;44.840;10.444;2023-10-31T08:20:11;1.33;;;0.17;;
26620;SDS011;14253;44.840;10.444;2023-10-31T08:22:38;0.45;;;0.13;;
26620;SDS011;14253;44.840;10.444;2023-10-31T08:25:04;1.60;;;0.10;;
26620;SDS011;14253;44.840;10.444;2023-10-31T08:27:31;0.90;;;0.22;;
26620;SDS011;14253;44.840;10.444;2023-10-31T08:29:56;0.38;;;0.10;;
26620;SDS011;14253;44.840;10.444;2023-10-31T08:32:22;0.35;;;0.10;;
26620;SDS011;14253;44.840;10.444;2023-10-31T08:34:49;0.70;;;0.10;;
26620;SDS011;14253;44.840;10.444;2023-10-31T08:37:15;1.38;;;0.35;;
26620;SDS011;14253;44.840;10.444;2023-10-31T08:39:41;4.13;;;0.20;;
26620;SDS011;14253;44.840;10.444;2023-10-31T08:42:07;2.05;;;0.10;;
26620;SDS011;14253;44.840;10.444;2023-10-31T08:44:34;4.93;;;0.20;;
26620;SDS011;14253;44.840;10.444;2023-10-31T08:47:03;1.55;;;0.10;;
26620;SDS011;14253;44.840;10.444;2023-10-31T08:49:29;6.65;;;0.22;;
26620;SDS011;14253;44.840;10.444;2023-10-31T08:51:55;2.70;;;0.30;;
26620;SDS011;14253;44.840;10.444;2023-10-31T08:54:21;1.30;;;0.13;;
26620;SDS011;14253;44.840;10.444;2023-10-31T08:56:47;3.97;;;0.40;;
26620;SDS011;14253;44.840;10.444;2023-10-31T08:59:13;0.57;;;0.13;;
26620;SDS011;14253;44.840;10.444;2023-10-31T09:01:39;2.55;;;0.22;;
26620;SDS011;14253;44.840;10.444;2023-10-31T09:04:05;4.10;;;0.55;;
26620;SDS011;14253;44.840;10.444;2023-10-31T09:06:31;1.90;;;0.13;;
26620;SDS011;14253;44.840;10.444;2023-10-31T09:08:56;0.75;;;0.20;;
26620;SDS011;14253;44.840;10.444;2023-10-31T09:11:22;1.85;;;0.30;;
26620;SDS011;14253;44.840;10.444;2023-10-31T09:13:48;2.33;;;0.15;;
26620;SDS011;14253;44.840;10.444;2023-10-31T09:16:14;2.33;;;0.30;;
26620;SDS011;14253;44.840;10.444;2023-10-31T09:18:40;0.68;;;0.10;;
26620;SDS011;14253;44.840;10.444;2023-10-31T09:21:08;1.85;;;0.10;;
26620;SDS011;14253;44.840;10.444;2023-10-31T09:23:35;6.20;;;0.15;;
26620;SDS011;14253;44.840;10.444;2023-10-31T09:26:01;1.25;;;0.35;;
26620;SDS011;14253;44.840;10.444;2023-10-31T09:28:27;0.20;;;0.10;;
26620;SDS011;14253;44.840;10.444;2023-10-31T09:30:53;1.33;;;0.25;;
26620;SDS011;14253;44.840;10.444;2023-10-31T09:33:19;2.17;;;0.20;;
26620;SDS011;14253;44.840;10.444;2023-10-31T09:35:45;0.47;;;0.15;;
26620;SDS011;14253;44.840;10.444;2023-10-31T09:38:11;0.95;;;0.20;;
26620;SDS011;14253;44.840;10.444;2023-10-31T09:40:38;1.27;;;0.10;;
26620;SDS011;14253;44.840;10.444;2023-10-31T09:43:04;0.20;;;0.10;;
26620;SDS011;14253;44.840;10.444;2023-10-31T09:45:30;0.55;;;0.10;;
26620;SDS011;14253;44.840;10.444;2023-10-31T09:47:56;0.70;;;0.10;;
26620;SDS011;14253;44.840;10.444;2023-10-31T09:50:25;0.00;;;0.00;;
26620;SDS011;14253;44.840;10.444;2023-10-31T09:52:51;0.68;;;0.20;;
26620;SDS011;14253;44.840;10.444;2023-10-31T09:55:18;1.30;;;0.20;;
26620;SDS011;14253;44.840;10.444;2023-10-31T09:57:44;0.10;;;0.00;;
26620;SDS011;14253;44.840;10.444;2023-10-31T10:00:11;0.90;;;0.13;;
26620;SDS011;14253;44.840;10.444;2023-10-31T10:02:37;0.00;;;0.00;;
26620;SDS011;14253;44.840;10.444;2023-10-31T10:05:04;0.70;;;0.20;;
26620;SDS011;14253;44.840;10.444;2023-10-31T10:07:31;0.50;;;0.03;;
26620;SDS011;14253;44.840;10.444;2023-10-31T10:10:01;2.10;;;0.17;;
26620;SDS011;14253;44.840;10.444;2023-10-31T10:12:27;0.00;;;0.00;;
26620;SDS011;14253;44.840;10.444;2023-10-31T10:14:53;0.70;;;0.20;;
26620;SDS011;14253;44.840;10.444;2023-10-31T10:17:22;0.30;;;0.15;;
26620;SDS011;14253;44.840;10.444;2023-10-31T10:20:09;0.30;;;0.20;;
26620;SDS011;14253;44.840;10.444;2023-10-31T10:22:40;1.67;;;0.10;;
26620;SDS011;14253;44.840;10.444;2023-10-31T10:25:10;0.40;;;0.13;;
26620;SDS011;14253;44.840;10.444;2023-10-31T10:27:39;0.20;;;0.10;;
26620;SDS011;14253;44.840;10.444;2023-10-31T10:30:07;0.52;;;0.20;;
26620;SDS011;14253;44.840;10.444;2023-10-31T10:32:34;2.45;;;0.10;;
26620;SDS011;14253;44.840;10.444;2023-10-31T10:35:00;0.17;;;0.10;;
26620;SDS011;14253;44.840;10.444;2023-10-31T10:37:26;0.30;;;0.10;;
26620;SDS011;14253;44.840;10.444;2023-10-31T10:39:53;0.13;;;0.00;;
26620;SDS011;14253;44.840;10.444;2023-10-31T10:42:25;0.75;;;0.17;;
26620;SDS011;14253;44.840;10.444;2023-10-31T10:45:03;0.73;;;0.10;;
26620;SDS011;14253;44.840;10.444;2023-10-31T10:47:31;0.05;;;0.00;;
26620;SDS011;14253;44.840;10.444;2023-10-31T10:49:58;0.10;;;0.10;;
26620;SDS011;14253;44.840;10.444;2023-10-31T10:52:30;2.10;;;0.28;;
26620;SDS011;14253;44.840;10.444;2023-10-31T10:55:13;0.10;;;0.10;;
26620;SDS011;14253;44.840;10.444;2023-10-31T10:57:56;0.52;;;0.10;;
26620;SDS011;14253;44.840;10.444;2023-10-31T11:00:30;0.10;;;0.10;;
26620;SDS011;14253;44.840;10.444;2023-10-31T11:02:57;0.17;;;0.13;;
26620;SDS011;14253;44.840;10.444;2023-10-31T11:05:23;0.00;;;0.00;;
26620;SDS011;14253;44.840;10.444;2023-10-31T11:07:49;0.47;;;0.17;;
26620;SDS011;14253;44.840;10.444;2023-10-31T11:10:17;0.13;;;0.05;;
26620;SDS011;14253;44.840;10.444;2023-10-31T11:12:43;0.45;;;0.00;;
26620;SDS011;14253;44.840;10.444;2023-10-31T11:15:11;0.22;;;0.10;;
26620;SDS011;14253;44.840;10.444;2023-10-31T11:17:43;0.30;;;0.10;;
26620;SDS011;14253;44.840;10.444;2023-10-31T11:20:11;0.20;;;0.00;;
26620;SDS011;14253;44.840;10.444;2023-10-31T11:22:42;0.55;;;0.10;;
26620;SDS011;14253;44.840;10.444;2023-10-31T11:25:10;0.35;;;0.10;;
26620;SDS011;14253;44.840;10.444;2023-10-31T11:27:38;0.22;;;0.10;;
26620;SDS011;14253;44.840;10.444;2023-10-31T11:30:48;0.00;;;0.00;;
26620;SDS011;14253;44.840;10.444;2023-10-31T11:32:57;0.28;;;0.10;;
26620;SDS011;14253;44.840;10.444;2023-10-31T11:35:24;0.60;;;0.30;;
26620;SDS011;14253;44.840;10.444;2023-10-31T11:38:01;0.40;;;0.03;;
26620;SDS011;14253;44.840;10.444;2023-10-31T11:40:28;0.43;;;0.00;;
26620;SDS011;14253;44.840;10.444;2023-10-31T11:43:01;0.15;;;0.00;;
26620;SDS011;14253;44.840;10.444;2023-10-31T11:45:34;0.32;;;0.10;;
26620;SDS011;14253;44.840;10.444;2023-10-31T11:48:07;1.08;;;0.10;;
26620;SDS011;14253;44.840;10.444;2023-10-31T11:50:35;1.85;;;0.05;;
26620;SDS011;14253;44.840;10.444;2023-10-31T11:55:32;0.65;;;0.10;;
26620;SDS011;14253;44.840;10.444;2023-10-31T12:00:39;0.47;;;0.08;;
26620;SDS011;14253;44.840;10.444;2023-10-31T12:03:05;0.77;;;0.28;;
26620;SDS011;14253;44.840;10.444;2023-10-31T12:05:31;0.93;;;0.38;;
26620;SDS011;14253;44.840;10.444;2023-10-31T12:07:57;11.55;;;1.45;;
26620;SDS011;14253;44.840;10.444;2023-10-31T12:10:26;0.60;;;0.20;;
26620;SDS011;14253;44.840;10.444;2023-10-31T12:12:56;0.75;;;0.20;;
26620;SDS011;14253;44.840;10.444;2023-10-31T12:15:23;2.33;;;0.60;;
26620;SDS011;14253;44.840;10.444;2023-10-31T12:17:50;0.40;;;0.22;;
26620;SDS011;14253;44.840;10.444;2023-10-31T12:20:16;0.30;;;0.20;;
26620;SDS011;14253;44.840;10.444;2023-10-31T12:22:42;1.35;;;0.13;;
26620;SDS011;14253;44.840;10.444;2023-10-31T12:25:09;0.10;;;0.10;;
26620;SDS011;14253;44.840;10.444;2023-10-31T12:27:45;0.30;;;0.10;;
26620;SDS011;14253;44.840;10.444;2023-10-31T12:30:15;0.40;;;0.20;;
26620;SDS011;14253;44.840;10.444;2023-10-31T12:32:45;2.13;;;0.55;;
26620;SDS011;14253;44.840;10.444;2023-10-31T12:35:19;0.57;;;0.20;;
26620;SDS011;14253;44.840;10.444;2023-10-31T12:37:47;1.90;;;0.30;;
26620;SDS011;14253;44.840;10.444;2023-10-31T12:40:16;0.20;;;0.10;;
26620;SDS011;14253;44.840;10.444;2023-10-31T12:42:45;2.38;;;0.93;;
26620;SDS011;14253;44.840;10.444;2023-10-31T12:45:12;1.00;;;0.50;;
26620;SDS011;14253;44.840;10.444;2023-10-31T12:47:38;1.58;;;0.30;;
26620;SDS011;14253;44.840;10.444;2023-10-31T12:50:08;1.35;;;0.30;;
26620;SDS011;14253;44.840;10.444;2023-10-31T12:55:16;2.03;;;0.20;;
26620;SDS011;14253;44.840;10.444;2023-10-31T12:57:44;1.85;;;0.57;;
26620;SDS011;14253;44.840;10.444;2023-10-31T13:00:12;3.00;;;0.65;;
26620;SDS011;14253;44.840;10.444;2023-10-31T13:02:49;2.78;;;0.40;;
26620;SDS011;14253;44.840;10.444;2023-10-31T13:05:25;2.63;;;0.80;;
26620;SDS011;14253;44.840;10.444;2023-10-31T13:07:52;2.72;;;0.93;;
26620;SDS011;14253;44.840;10.444;2023-10-31T13:10:21;3.83;;;0.70;;
26620;SDS011;14253;44.840;10.444;2023-10-31T13:12:52;1.73;;;0.35;;
26620;SDS011;14253;44.840;10.444;2023-10-31T13:15:19;3.78;;;0.57;;
26620;SDS011;14253;44.840;10.444;2023-10-31T13:17:49;1.55;;;0.52;;
26620;SDS011;14253;44.840;10.444;2023-10-31T13:20:16;3.30;;;0.50;;
26620;SDS011;14253;44.840;10.444;2023-10-31T13:22:43;2.58;;;0.55;;
26620;SDS011;14253;44.840;10.444;2023-10-31T13:25:10;4.78;;;0.68;;
26620;SDS011;14253;44.840;10.444;2023-10-31T13:27:38;2.10;;;0.50;;
26620;SDS011;14253;44.840;10.444;2023-10-31T13:30:08;4.40;;;0.50;;
26620;SDS011;14253;44.840;10.444;2023-10-31T13:32:41;4.25;;;0.70;;
26620;SDS011;14253;44.840;10.444;2023-10-31T13:35:07;2.28;;;0.77;;
26620;SDS011;14253;44.840;10.444;2023-10-31T13:37:37;3.63;;;0.68;;
26620;SDS011;14253;44.840;10.444;2023-10-31T13:40:03;4.05;;;0.82;;
26620;SDS011;14253;44.840;10.444;2023-10-31T13:42:30;4.05;;;1.23;;
26620;SDS011;14253;44.840;10.444;2023-10-31T13:44:56;3.33;;;0.77;;
26620;SDS011;14253;44.840;10.444;2023-10-31T13:47:22;4.05;;;1.02;;
26620;SDS011;14253;44.840;10.444;2023-10-31T13:49:48;3.58;;;0.98;;
26620;SDS011;14253;44.840;10.444;2023-10-31T13:52:14;4.22;;;0.77;;
26620;SDS011;14253;44.840;10.444;2023-10-31T13:54:41;8.43;;;1.30;;
26620;SDS011;14253;44.840;10.444;2023-10-31T13:57:08;5.28;;;0.88;;
26620;SDS011;14253;44.840;10.444;2023-10-31T13:59:34;4.65;;;1.10;;
26620;SDS011;14253;44.840;10.444;2023-10-31T14:02:01;4.85;;;0.63;;
26620;SDS011;14253;44.840;10.444;2023-10-31T14:04:26;5.00;;;1.00;;
26620;SDS011;14253;44.840;10.444;2023-10-31T14:06:54;6.72;;;1.13;;
26620;SDS011;14253;44.840;10.444;2023-10-31T14:09:20;5.65;;;1.08;;
26620;SDS011;14253;44.840;10.444;2023-10-31T14:11:46;8.02;;;1.42;;
26620;SDS011;14253;44.840;10.444;2023-10-31T14:14:12;4.93;;;1.35;;
26620;SDS011;14253;44.840;10.444;2023-10-31T14:16:39;7.10;;;1.42;;
26620;SDS011;14253;44.840;10.444;2023-10-31T14:19:05;6.97;;;1.10;;
26620;SDS011;14253;44.840;10.444;2023-10-31T14:21:35;6.63;;;1.27;;
26620;SDS011;14253;44.840;10.444;2023-10-31T14:24:02;5.90;;;1.30;;
26620;SDS011;14253;44.840;10.444;2023-10-31T14:26:29;4.35;;;1.58;;
26620;SDS011;14253;44.840;10.444;2023-10-31T14:28:57;4.95;;;1.30;;
26620;SDS011;14253;44.840;10.444;2023-10-31T14:31:24;7.50;;;1.17;;
26620;SDS011;14253;44.840;10.444;2023-10-31T14:33:49;4.03;;;0.90;;
26620;SDS011;14253;44.840;10.444;2023-10-31T14:36:15;4.70;;;1.13;;
26620;SDS011;14253;44.840;10.444;2023-10-31T14:38:41;6.97;;;1.15;;